createdAt,value
2018-07-23T00:00:16.681Z,15.23
2018-07-23T00:02:45.013Z,10.30
2018-07-23T00:05:13.376Z,18.12
2018-07-23T00:07:41.740Z,11.20
2018-07-23T00:10:10.234Z,14.75
2018-07-23T00:12:38.795Z,10.35
2018-07-23T00:15:07.201Z,11.28
2018-07-23T00:17:35.678Z,11.53
2018-07-23T00:20:05.355Z,13.40
2018-07-23T00:22:33.691Z,11.88
2018-07-23T00:25:02.049Z,12.37
2018-07-23T00:27:30.367Z,12.07
2018-07-23T00:29:58.715Z,12.88
2018-07-23T00:32:27.114Z,11.78
2018-07-23T00:34:55.408Z,15.78
2018-07-23T00:37:23.767Z,17.92
2018-07-23T00:39:52.104Z,10.78
2018-07-23T00:42:20.458Z,9.63
2018-07-23T00:44:48.764Z,13.03
2018-07-23T00:47:17.083Z,13.30
2018-07-23T00:49:45.508Z,10.15
2018-07-23T00:52:13.912Z,11.03
2018-07-23T00:54:43.103Z,9.98
2018-07-23T00:57:11.525Z,11.45
2018-07-23T00:59:39.897Z,15.18
2018-07-23T01:02:08.241Z,14.33
2018-07-23T01:04:36.605Z,13.68
2018-07-23T01:07:05.180Z,15.03
2018-07-23T01:09:33.503Z,15.58
2018-07-23T01:12:01.888Z,14.07
2018-07-23T01:14:30.237Z,14.78
2018-07-23T01:16:58.583Z,14.73
2018-07-23T01:19:26.971Z,14.70
2018-07-23T01:21:55.298Z,14.18
2018-07-23T01:24:23.624Z,15.00
2018-07-23T01:26:51.972Z,16.48
2018-07-23T01:29:20.436Z,16.12
2018-07-23T01:31:48.920Z,15.58
2018-07-23T01:34:17.357Z,14.10
2018-07-23T01:36:45.642Z,13.58
2018-07-23T01:39:13.954Z,15.63
2018-07-23T01:41:42.289Z,13.68
2018-07-23T01:44:10.590Z,14.98
2018-07-23T01:46:39.012Z,16.52
2018-07-23T01:49:07.415Z,13.53
2018-07-23T01:51:35.836Z,16.00
2018-07-23T01:54:04.228Z,14.00
2018-07-23T01:56:32.542Z,17.67
2018-07-23T01:59:00.885Z,17.20
2018-07-23T02:01:29.195Z,17.30
2018-07-23T02:03:57.721Z,16.70
2018-07-23T02:06:26.120Z,13.72
2018-07-23T02:08:54.573Z,13.98
2018-07-23T02:11:22.905Z,15.30
2018-07-23T02:13:51.257Z,17.32
2018-07-23T02:16:19.649Z,16.07
2018-07-23T02:18:47.957Z,13.38
2018-07-23T02:21:16.321Z,18.77
2018-07-23T02:23:44.635Z,18.57
2018-07-23T02:26:12.954Z,17.82
2018-07-23T02:28:40.980Z,15.13
2018-07-23T02:31:09.288Z,15.43
2018-07-23T02:33:37.612Z,15.50
2018-07-23T02:36:05.917Z,20.65
2018-07-23T02:38:34.312Z,16.95
2018-07-23T02:41:02.751Z,20.02
2018-07-23T02:43:31.415Z,20.72
2018-07-23T02:45:59.985Z,19.75
2018-07-23T02:48:28.425Z,22.82
2018-07-23T02:50:56.771Z,18.85
2018-07-23T02:53:25.176Z,19.45
2018-07-23T02:55:53.533Z,18.82
2018-07-23T02:58:21.827Z,20.23
2018-07-23T03:00:50.437Z,22.02
2018-07-23T03:03:18.781Z,24.57
2018-07-23T03:05:47.166Z,21.27
2018-07-23T03:08:15.507Z,24.45
2018-07-23T03:10:43.897Z,18.80
2018-07-23T03:13:12.268Z,23.35
2018-07-23T03:15:40.641Z,21.25
2018-07-23T03:18:09.127Z,26.52
2018-07-23T03:20:37.606Z,19.75
2018-07-23T03:23:06.403Z,21.87
2018-07-23T03:25:34.984Z,24.82
2018-07-23T03:28:03.351Z,23.00
2018-07-23T03:30:31.675Z,20.40
2018-07-23T03:33:00.031Z,29.95
2018-07-23T03:35:28.396Z,21.12
2018-07-23T03:37:56.728Z,21.87
2018-07-23T03:40:25.115Z,21.70
2018-07-23T03:42:53.727Z,20.70
2018-07-23T03:45:22.269Z,24.67
2018-07-23T03:47:50.630Z,33.85
2018-07-23T03:50:19.063Z,27.32
2018-07-23T03:52:47.404Z,22.15
2018-07-23T03:55:15.868Z,23.00
2018-07-23T03:57:44.236Z,19.50
2018-07-23T04:00:12.614Z,22.70
2018-07-23T04:02:41.115Z,24.35
2018-07-23T04:05:09.425Z,21.23
2018-07-23T04:07:37.843Z,27.93
2018-07-23T04:10:06.431Z,26.40
2018-07-23T04:12:34.683Z,23.15
2018-07-23T04:15:03.154Z,26.40
2018-07-23T04:17:31.483Z,33.00
2018-07-23T04:19:59.944Z,23.40
2018-07-23T04:22:28.275Z,22.93
2018-07-23T04:24:56.556Z,22.73
2018-07-23T04:27:24.896Z,20.85
2018-07-23T04:29:53.208Z,23.45
2018-07-23T04:32:21.597Z,22.62
2018-07-23T04:34:49.918Z,20.43
2018-07-23T04:37:18.437Z,21.02
2018-07-23T04:39:46.876Z,26.35
2018-07-23T04:42:15.198Z,23.07
2018-07-23T04:44:43.576Z,24.85
2018-07-23T04:47:11.934Z,25.80
2018-07-23T04:49:40.244Z,28.20
2018-07-23T04:52:08.585Z,25.08
2018-07-23T04:54:36.977Z,30.75
2018-07-23T04:57:05.129Z,26.70
2018-07-23T04:59:33.338Z,23.70
2018-07-23T05:02:01.888Z,27.07
2018-07-23T05:04:30.286Z,25.17
2018-07-23T05:06:58.929Z,29.23
2018-07-23T05:09:27.412Z,28.60
2018-07-23T05:11:55.890Z,26.10
2018-07-23T05:14:24.273Z,29.00
2018-07-23T05:16:52.603Z,27.15
2018-07-23T05:19:20.987Z,28.07
2018-07-23T05:21:49.543Z,26.68
2018-07-23T05:24:17.848Z,25.80
2018-07-23T05:26:46.175Z,26.65
2018-07-23T05:29:14.581Z,22.70
2018-07-23T05:31:42.930Z,25.97
2018-07-23T05:34:11.364Z,23.65
2018-07-23T05:36:39.740Z,26.48
2018-07-23T05:39:09.674Z,25.72
2018-07-23T05:41:38.173Z,23.47
2018-07-23T05:44:06.595Z,30.92
2018-07-23T05:46:34.963Z,25.43
2018-07-23T05:49:03.326Z,24.95
2018-07-23T05:51:31.688Z,27.22
2018-07-23T05:54:00.317Z,24.27
2018-07-23T05:56:28.663Z,26.02
2018-07-23T05:58:57.116Z,23.62
2018-07-23T06:01:25.439Z,19.15
2018-07-23T06:03:53.729Z,20.50
2018-07-23T06:06:22.064Z,24.45
2018-07-23T06:08:50.516Z,25.20
2018-07-23T06:11:18.853Z,23.07
2018-07-23T06:13:47.199Z,21.45
2018-07-23T06:16:15.550Z,25.23
2018-07-23T06:18:43.923Z,23.85
2018-07-23T06:21:12.363Z,20.25
2018-07-23T06:23:40.717Z,19.75
2018-07-23T06:26:09.123Z,19.90
2018-07-23T06:28:37.496Z,18.92
2018-07-23T06:31:06.036Z,19.48
2018-07-23T06:33:34.470Z,20.57
2018-07-23T06:36:02.860Z,21.27
2018-07-23T06:38:31.168Z,17.85
2018-07-23T06:40:59.464Z,23.60
2018-07-23T06:43:27.846Z,18.27
2018-07-23T06:45:56.174Z,18.85
2018-07-23T06:48:24.564Z,14.93
2018-07-23T06:50:52.930Z,19.82
2018-07-23T06:53:21.292Z,21.02
2018-07-23T06:55:49.631Z,13.65
2018-07-23T06:58:17.955Z,20.40
2018-07-23T07:00:46.266Z,17.77
2018-07-23T07:03:14.668Z,15.30
2018-07-23T07:05:43.138Z,17.25
2018-07-23T07:08:11.609Z,17.07
2018-07-23T07:10:40.045Z,14.95
2018-07-23T07:13:08.445Z,16.15
2018-07-23T07:15:36.841Z,17.85
2018-07-23T07:18:05.246Z,18.50
2018-07-23T07:20:33.595Z,16.07
2018-07-23T07:23:02.009Z,16.52
2018-07-23T07:25:30.446Z,19.70
2018-07-23T07:27:58.763Z,20.40
2018-07-23T07:30:27.141Z,15.88
2018-07-23T07:32:55.530Z,16.73
2018-07-23T07:35:23.959Z,14.70
2018-07-23T07:37:52.450Z,14.55
2018-07-23T07:40:20.810Z,16.57
2018-07-23T07:42:49.164Z,13.28
2018-07-23T07:45:17.724Z,13.93
2018-07-23T07:47:46.162Z,17.82
2018-07-23T07:50:14.581Z,11.97
2018-07-23T07:52:43.012Z,14.78
2018-07-23T07:55:11.413Z,15.60
2018-07-23T07:57:39.830Z,14.10
2018-07-23T08:00:08.351Z,13.20
2018-07-23T08:02:36.739Z,9.80
2018-07-23T08:05:05.152Z,10.43
2018-07-23T08:07:33.542Z,13.55
2018-07-23T08:10:01.825Z,11.60
2018-07-23T08:12:30.239Z,11.78
2018-07-23T08:14:58.632Z,12.18
2018-07-23T08:17:27.099Z,11.85
2018-07-23T08:19:55.229Z,10.82
2018-07-23T08:22:23.639Z,11.00
2018-07-23T08:24:51.912Z,12.13
2018-07-23T08:27:20.203Z,11.63
2018-07-23T08:29:48.555Z,15.15
2018-07-23T08:32:16.927Z,12.82
2018-07-23T08:34:45.164Z,7.10
2018-07-23T08:37:14.462Z,7.15
2018-07-23T08:39:42.840Z,8.25
2018-07-23T08:42:11.188Z,8.63
2018-07-23T08:44:39.527Z,11.22
2018-07-23T08:47:07.895Z,7.65
2018-07-23T08:49:36.275Z,6.22
2018-07-23T08:52:04.629Z,5.97
2018-07-23T08:54:33.238Z,6.95
2018-07-23T08:57:01.717Z,8.18
2018-07-23T08:59:30.102Z,11.63
2018-07-23T09:01:58.580Z,7.90
2018-07-23T09:04:26.886Z,8.90
2018-07-23T09:06:55.193Z,4.05
2018-07-23T09:09:23.490Z,8.08
2018-07-23T09:11:51.838Z,5.97
2018-07-23T09:14:20.345Z,5.58
2018-07-23T09:16:48.699Z,5.08
2018-07-23T09:19:17.989Z,5.40
2018-07-23T09:21:46.296Z,4.83
2018-07-23T09:24:14.720Z,6.97
2018-07-23T09:26:43.017Z,4.47
2018-07-23T09:29:11.325Z,4.60
2018-07-23T09:31:39.695Z,6.83
2018-07-23T09:34:08.060Z,5.12
2018-07-23T09:36:36.469Z,5.92
2018-07-23T09:39:07.994Z,4.87
2018-07-23T09:41:36.128Z,8.63
2018-07-23T09:44:04.557Z,6.60
2018-07-23T09:46:32.851Z,10.10
2018-07-23T09:49:01.248Z,4.55
2018-07-23T09:51:29.599Z,7.05
2018-07-23T09:53:57.898Z,4.22
2018-07-23T09:56:26.314Z,6.00
2018-07-23T09:58:54.347Z,3.77
2018-07-23T10:01:22.725Z,5.25
2018-07-23T10:03:50.995Z,4.42
2018-07-23T10:06:19.903Z,5.72
2018-07-23T10:08:48.287Z,4.67
2018-07-23T10:11:16.723Z,4.67
2018-07-23T10:13:45.221Z,5.92
2018-07-23T10:16:13.784Z,4.33
2018-07-23T10:18:42.101Z,4.92
2018-07-23T10:21:10.592Z,7.60
2018-07-23T10:23:38.923Z,5.33
2018-07-23T10:26:07.297Z,4.12
2018-07-23T10:28:35.595Z,7.75
2018-07-23T10:31:03.960Z,3.85
2018-07-23T10:33:32.328Z,7.92
2018-07-23T10:36:00.692Z,6.42
2018-07-23T10:38:29.132Z,11.38
2018-07-23T10:40:57.434Z,4.45
2018-07-23T10:43:25.750Z,5.22
2018-07-23T10:45:54.190Z,4.08
2018-07-23T10:48:22.804Z,3.45
2018-07-23T10:50:51.210Z,5.60
2018-07-23T10:53:19.621Z,4.33
2018-07-23T10:55:48.008Z,3.95
2018-07-23T10:58:16.922Z,4.00
2018-07-23T11:00:45.251Z,5.75
2018-07-23T11:03:13.612Z,3.05
2018-07-23T11:05:41.954Z,3.50
2018-07-23T11:08:10.231Z,5.83
2018-07-23T11:10:38.592Z,4.33
2018-07-23T11:13:06.970Z,3.62
2018-07-23T11:15:35.142Z,5.05
2018-07-23T11:18:03.482Z,4.58
2018-07-23T11:20:31.865Z,4.20
2018-07-23T11:23:00.183Z,4.58
2018-07-23T11:25:39.806Z,3.95
2018-07-23T11:27:56.981Z,3.62
2018-07-23T11:30:25.680Z,4.62
2018-07-23T11:32:54.274Z,3.08
2018-07-23T11:35:22.704Z,6.55
2018-07-23T11:37:51.000Z,4.85
2018-07-23T11:40:19.352Z,6.50
2018-07-23T11:42:47.828Z,6.20
2018-07-23T11:45:16.130Z,9.33
2018-07-23T11:47:44.484Z,7.78
2018-07-23T11:50:12.809Z,3.67
2018-07-23T11:52:41.097Z,4.35
2018-07-23T11:55:09.443Z,4.00
2018-07-23T11:57:37.842Z,5.30
2018-07-23T12:00:06.196Z,6.55
2018-07-23T12:02:34.611Z,4.15
2018-07-23T12:05:03.129Z,6.28
2018-07-23T12:07:31.459Z,11.50
2018-07-23T12:09:59.838Z,3.27
2018-07-23T12:12:28.426Z,5.12
2018-07-23T12:14:56.790Z,5.12
2018-07-23T12:17:25.212Z,6.42
2018-07-23T12:19:53.567Z,3.83
2018-07-23T12:22:21.851Z,6.17
2018-07-23T12:24:50.322Z,4.00
2018-07-23T12:27:20.937Z,3.37
2018-07-23T12:29:49.436Z,5.05
2018-07-23T12:32:17.794Z,3.37
2018-07-23T12:34:46.193Z,4.72
2018-07-23T12:37:14.537Z,4.35
2018-07-23T12:39:43.003Z,5.12
2018-07-23T12:42:11.339Z,3.25
2018-07-23T12:44:39.811Z,3.52
2018-07-23T12:47:08.460Z,3.62
2018-07-23T12:49:36.949Z,2.72
2018-07-23T12:52:05.426Z,4.05
2018-07-23T12:54:33.770Z,5.83
2018-07-23T12:57:02.217Z,5.42
2018-07-23T12:59:30.555Z,3.75
2018-07-23T13:01:58.981Z,8.13
2018-07-23T13:04:27.298Z,4.50
2018-07-23T13:06:55.580Z,3.00
2018-07-23T13:09:23.929Z,3.15
2018-07-23T13:11:52.235Z,3.75
2018-07-23T13:14:20.558Z,2.95
2018-07-23T13:16:48.895Z,2.95
2018-07-23T13:19:17.316Z,3.52
2018-07-23T13:21:45.828Z,2.58
2018-07-23T13:24:14.355Z,7.25
2018-07-23T13:26:42.817Z,7.53
2018-07-23T13:29:11.394Z,3.25
2018-07-23T13:31:39.688Z,2.65
2018-07-23T13:34:08.088Z,3.08
2018-07-23T13:36:36.570Z,2.80
2018-07-23T13:39:07.807Z,3.50
2018-07-23T13:41:36.276Z,2.67
2018-07-23T13:44:04.673Z,6.92
2018-07-23T13:46:32.996Z,4.80
2018-07-23T13:49:01.331Z,2.72
2018-07-23T13:51:29.671Z,4.47
2018-07-23T13:53:57.993Z,5.12
2018-07-23T13:56:26.388Z,3.70
2018-07-23T13:58:54.708Z,3.85
2018-07-23T14:01:23.165Z,3.15
2018-07-23T14:03:51.664Z,4.47
2018-07-23T14:06:20.093Z,3.33
2018-07-23T14:08:48.621Z,4.00
2018-07-23T14:11:17.070Z,8.30
2018-07-23T14:13:45.391Z,9.05
2018-07-23T14:16:13.681Z,3.05
2018-07-23T14:18:42.242Z,3.87
2018-07-23T14:21:10.700Z,2.50
2018-07-23T14:23:39.123Z,2.80
2018-07-23T14:26:07.398Z,3.17
2018-07-23T14:28:35.737Z,3.83
2018-07-23T14:31:04.052Z,7.42
2018-07-23T14:33:32.623Z,3.12
2018-07-23T14:36:00.896Z,5.12
2018-07-23T14:38:29.353Z,5.55
2018-07-23T14:40:57.699Z,3.22
2018-07-23T14:43:26.013Z,3.00
2018-07-23T14:45:54.404Z,2.87
2018-07-23T14:48:23.722Z,3.47
2018-07-23T14:50:52.048Z,5.00
2018-07-23T14:53:20.326Z,2.77
2018-07-23T14:55:48.623Z,3.08
2018-07-23T14:58:17.013Z,2.60
2018-07-23T15:00:45.297Z,2.72
2018-07-23T15:03:13.663Z,2.50
2018-07-23T15:05:42.054Z,4.92
2018-07-23T15:08:10.375Z,3.85
2018-07-23T15:10:38.679Z,4.47
2018-07-23T15:13:06.973Z,2.85
2018-07-23T15:15:35.298Z,3.47
2018-07-23T15:18:03.806Z,5.05
2018-07-23T15:20:32.244Z,2.83
2018-07-23T15:23:01.365Z,2.65
2018-07-23T15:25:29.904Z,3.95
2018-07-23T15:27:58.246Z,1.80
2018-07-23T15:30:26.622Z,2.33
2018-07-23T15:32:54.979Z,2.02
2018-07-23T15:35:23.352Z,4.70
2018-07-23T15:37:51.612Z,2.40
2018-07-23T15:40:19.935Z,6.05
2018-07-23T15:42:48.327Z,5.92
2018-07-23T15:45:16.714Z,3.05
2018-07-23T15:47:46.582Z,5.85
2018-07-23T15:50:15.012Z,3.08
2018-07-23T15:52:43.367Z,3.10
2018-07-23T15:55:11.817Z,3.30
2018-07-23T15:57:40.260Z,2.67
2018-07-23T16:00:08.681Z,3.33
2018-07-23T16:02:37.141Z,3.60
2018-07-23T16:05:05.437Z,3.00
2018-07-23T16:07:33.818Z,4.67
2018-07-23T16:10:02.177Z,6.33
2018-07-23T16:12:30.498Z,3.65
2018-07-23T16:14:59.029Z,3.58
2018-07-23T16:17:27.330Z,3.08
2018-07-23T16:19:55.704Z,5.37
2018-07-23T16:22:23.990Z,5.08
2018-07-23T16:24:52.391Z,2.72
2018-07-23T16:27:20.859Z,6.08
2018-07-23T16:29:49.249Z,6.37
2018-07-23T16:32:17.642Z,2.98
2018-07-23T16:34:45.972Z,3.15
2018-07-23T16:37:15.610Z,4.28
2018-07-23T16:39:44.050Z,4.15
2018-07-23T16:42:12.426Z,2.87
2018-07-23T16:44:40.817Z,5.95
2018-07-23T16:47:09.219Z,5.28
2018-07-23T16:49:37.563Z,12.58
2018-07-23T16:52:06.395Z,3.70
2018-07-23T16:54:34.725Z,3.40
2018-07-23T16:57:03.040Z,4.28
2018-07-23T16:59:31.369Z,7.35
2018-07-23T17:01:59.670Z,8.68
2018-07-23T17:04:28.087Z,7.00
2018-07-23T17:06:56.165Z,3.52
2018-07-23T17:09:24.534Z,7.70
2018-07-23T17:11:52.852Z,4.92
2018-07-23T17:14:21.179Z,7.50
2018-07-23T17:16:49.681Z,5.40
2018-07-23T17:19:18.161Z,5.12
2018-07-23T17:21:46.584Z,5.97
2018-07-23T17:24:14.948Z,5.95
2018-07-23T17:26:43.329Z,3.15
2018-07-23T17:29:11.752Z,3.05
2018-07-23T17:31:40.218Z,4.30
2018-07-23T17:34:08.510Z,6.17
2018-07-23T17:36:36.822Z,6.55
2018-07-23T17:39:08.477Z,5.33
2018-07-23T17:41:36.855Z,6.33
2018-07-23T17:44:05.228Z,5.58
2018-07-23T17:46:33.630Z,3.92
2018-07-23T17:49:01.975Z,3.02
2018-07-23T17:51:30.415Z,4.37
2018-07-23T17:53:58.795Z,3.40
2018-07-23T17:56:27.218Z,6.55
2018-07-23T17:58:55.805Z,3.15
2018-07-23T18:01:24.184Z,4.55
2018-07-23T18:03:52.691Z,8.03
2018-07-23T18:06:21.021Z,3.60
2018-07-23T18:08:49.331Z,3.62
2018-07-23T18:11:18.303Z,3.25
2018-07-23T18:13:46.658Z,4.20
2018-07-23T18:16:15.101Z,2.75
2018-07-23T18:18:43.524Z,5.78
2018-07-23T18:21:11.932Z,4.03
2018-07-23T18:23:40.266Z,4.60
2018-07-23T18:26:08.669Z,3.83
2018-07-23T18:28:37.158Z,5.37
2018-07-23T18:31:05.499Z,2.80
2018-07-23T18:33:33.981Z,3.58
2018-07-23T18:36:02.574Z,4.37
2018-07-23T18:38:31.188Z,2.50
2018-07-23T18:41:00.354Z,2.75
2018-07-23T18:43:28.759Z,3.05
2018-07-23T18:45:57.080Z,3.05
2018-07-23T18:49:37.543Z,13.08
2018-07-23T18:52:06.094Z,6.40
2018-07-23T18:54:35.198Z,3.90
2018-07-23T18:57:04.854Z,6.33
2018-07-23T18:59:34.545Z,4.40
2018-07-23T19:02:04.421Z,3.70
2018-07-23T19:04:32.903Z,5.75
2018-07-23T19:07:02.050Z,4.33
2018-07-23T19:09:30.812Z,5.12
2018-07-23T19:11:59.714Z,4.30
2018-07-23T19:14:28.110Z,6.35
2018-07-23T19:16:57.396Z,6.67
2018-07-23T19:19:25.766Z,5.08
2018-07-23T19:21:54.664Z,10.03
2018-07-23T19:24:23.040Z,6.87
2018-07-23T19:26:51.333Z,4.03
2018-07-23T19:29:19.646Z,7.22
2018-07-23T19:31:48.059Z,5.90
2018-07-23T19:34:16.517Z,10.88
2018-07-23T19:36:45.038Z,7.17
2018-07-23T19:39:14.832Z,10.43
2018-07-23T19:41:43.343Z,6.58
2018-07-23T19:44:12.667Z,9.90
2018-07-23T19:46:41.017Z,5.15
2018-07-23T19:49:09.501Z,3.87
2018-07-23T19:51:37.875Z,3.47
2018-07-23T19:54:07.025Z,5.42
2018-07-23T19:56:35.355Z,16.30
2018-07-23T19:59:03.738Z,12.03
2018-07-23T20:01:32.188Z,7.17
2018-07-23T20:04:00.574Z,5.37
2018-07-23T20:06:29.255Z,5.22
2018-07-23T20:08:58.495Z,8.80
2018-07-23T20:11:27.558Z,6.40
2018-07-23T20:13:56.029Z,8.88
2018-07-23T20:16:25.799Z,6.95
2018-07-23T20:18:54.184Z,13.68
2018-07-23T20:21:22.604Z,6.75
2018-07-23T20:23:51.154Z,6.58
2018-07-23T20:26:20.441Z,11.88
2018-07-23T20:28:49.159Z,10.13
2018-07-23T20:31:17.733Z,7.30
2018-07-23T20:33:46.339Z,6.70
2018-07-23T20:36:14.724Z,6.60
2018-07-23T20:38:43.019Z,6.03
2018-07-23T20:41:11.314Z,6.28
2018-07-23T20:43:39.636Z,5.30
2018-07-23T20:46:08.033Z,12.53
2018-07-23T20:48:36.383Z,6.22
2018-07-23T20:51:04.849Z,7.30
2018-07-23T20:53:33.265Z,8.68
2018-07-23T20:56:01.787Z,9.53
2018-07-23T20:58:30.376Z,5.72
2018-07-23T21:00:58.813Z,10.85
2018-07-23T21:03:28.614Z,8.18
2018-07-23T21:05:56.945Z,6.70
2018-07-23T21:08:25.322Z,7.08
2018-07-23T21:10:53.792Z,5.97
2018-07-23T21:13:22.286Z,7.12
2018-07-23T21:15:50.763Z,11.75
2018-07-23T21:18:19.132Z,6.33
2018-07-23T21:20:47.464Z,9.00
2018-07-23T21:23:15.803Z,10.35
2018-07-23T21:25:44.137Z,9.70
2018-07-23T21:28:12.458Z,11.83
2018-07-23T21:30:40.482Z,8.20
2018-07-23T21:33:08.862Z,8.78
2018-07-23T21:35:37.187Z,10.18
2018-07-23T21:38:05.387Z,7.33
2018-07-23T21:40:33.826Z,9.73
2018-07-23T21:43:02.229Z,8.18
2018-07-23T21:45:30.736Z,7.70
2018-07-23T21:47:59.115Z,7.65
2018-07-23T21:50:27.489Z,11.18
2018-07-23T21:52:55.883Z,7.58
2018-07-23T21:55:24.231Z,8.38
2018-07-23T21:57:52.708Z,10.38
2018-07-23T22:00:21.049Z,10.93
2018-07-23T22:02:49.414Z,7.00
2018-07-23T22:05:17.731Z,9.35
2018-07-23T22:07:46.088Z,14.03
2018-07-23T22:10:14.528Z,7.92
2018-07-23T22:12:42.875Z,9.18
2018-07-23T22:15:11.739Z,9.45
2018-07-23T22:17:40.071Z,12.10
2018-07-23T22:20:09.017Z,9.33
2018-07-23T22:22:37.351Z,10.20
2018-07-23T22:25:06.131Z,11.73
2018-07-23T22:27:34.580Z,14.00
2018-07-23T22:30:02.874Z,9.48
2018-07-23T22:32:31.304Z,14.10
2018-07-23T22:34:59.691Z,8.60
2018-07-23T22:37:28.294Z,7.35
2018-07-23T22:39:56.717Z,10.30
2018-07-23T22:42:26.392Z,11.20
2018-07-23T22:44:54.699Z,12.68
2018-07-23T22:47:23.036Z,12.50
2018-07-23T22:49:51.351Z,12.60
2018-07-23T22:52:19.775Z,10.53
2018-07-23T22:54:48.157Z,14.20
2018-07-23T22:57:16.579Z,8.68
2018-07-23T22:59:45.101Z,9.23
2018-07-23T23:02:13.545Z,10.50
2018-07-23T23:04:42.005Z,10.18
2018-07-23T23:07:10.344Z,11.73
2018-07-23T23:09:38.674Z,9.10
2018-07-23T23:12:07.070Z,11.90
2018-07-23T23:14:35.393Z,18.60
2018-07-23T23:17:03.754Z,8.08
2018-07-23T23:19:32.093Z,11.20
2018-07-23T23:22:00.473Z,12.00
2018-07-23T23:24:28.812Z,8.48
2018-07-23T23:38:19.791Z,7.17
2018-07-23T23:40:48.216Z,6.10
2018-07-23T23:43:16.604Z,9.73
2018-07-23T23:45:44.872Z,5.70
2018-07-23T23:48:13.204Z,7.22
2018-07-23T23:50:41.577Z,7.50
2018-07-23T23:53:09.992Z,5.83
2018-07-23T23:55:38.502Z,7.97
2018-07-23T23:58:06.819Z,10.80
